sensor_id;sensor_type;location;lat;lon;timestamp;pressure;altitude;pressure_sealevel;temperature;humidity
51299;BME280;37382;45.192;9.790;2023-01-30T00:01:17;102033.84;;;0.15;100.00
51299;BME280;37382;45.192;9.790;2023-01-30T00:03:45;102035.41;;;-0.10;100.00
51299;BME280;37382;45.192;9.790;2023-01-30T00:06:13;102037.22;;;0.19;100.00
51299;BME280;37382;45.192;9.790;2023-01-30T00:08:41;102045.00;;;0.36;100.00
51299;BME280;37382;45.192;9.790;2023-01-30T00:11:10;102037.28;;;0.31;100.00
51299;BME280;37382;45.192;9.790;2023-01-30T00:13:39;102035.47;;;0.17;100.00
51299;BME280;37382;45.192;9.790;2023-01-30T00:16:07;102029.56;;;-0.02;100.00
51299;BME280;37382;45.192;9.790;2023-01-30T00:18:40;102026.16;;;-0.04;100.00
51299;BME280;37382;45.192;9.790;2023-01-30T00:21:09;102022.09;;;0.17;100.00
51299;BME280;37382;45.192;9.790;2023-01-30T00:23:38;102025.91;;;0.28;100.00
51299;BME280;37382;45.192;9.790;2023-01-30T00:26:06;102018.31;;;0.49;100.00
51299;BME280;37382;45.192;9.790;2023-01-30T00:28:33;102017.63;;;0.73;100.00
51299;BME280;37382;45.192;9.790;2023-01-30T00:31:03;102012.03;;;0.90;100.00
51299;BME280;37382;45.192;9.790;2023-01-30T00:33:34;102014.94;;;1.00;100.00
51299;BME280;37382;45.192;9.790;2023-01-30T00:36:03;102006.91;;;1.13;100.00
51299;BME280;37382;45.192;9.790;2023-01-30T00:38:30;102008.00;;;1.10;100.00
51299;BME280;37382;45.192;9.790;2023-01-30T00:40:58;102009.41;;;1.16;100.00
51299;BME280;37382;45.192;9.790;2023-01-30T00:43:25;102005.97;;;1.27;100.00
51299;BME280;37382;45.192;9.790;2023-01-30T00:46:24;102003.09;;;1.30;100.00
51299;BME280;37382;45.192;9.790;2023-01-30T00:49:11;102000.81;;;1.36;100.00
51299;BME280;37382;45.192;9.790;2023-01-30T00:51:38;101999.22;;;1.21;100.00
51299;BME280;37382;45.192;9.790;2023-01-30T00:54:06;101994.81;;;1.20;100.00
51299;BME280;37382;45.192;9.790;2023-01-30T00:56:34;101996.09;;;1.14;100.00
51299;BME280;37382;45.192;9.790;2023-01-30T00:59:02;102004.03;;;0.76;100.00
51299;BME280;37382;45.192;9.790;2023-01-30T01:01:30;102003.03;;;0.37;100.00
51299;BME280;37382;45.192;9.790;2023-01-30T01:03:57;101998.16;;;0.29;100.00
51299;BME280;37382;45.192;9.790;2023-01-30T01:06:24;102001.84;;;0.55;100.00
51299;BME280;37382;45.192;9.790;2023-01-30T01:08:52;102002.19;;;0.63;100.00
51299;BME280;37382;45.192;9.790;2023-01-30T01:11:19;102004.31;;;0.58;100.00
51299;BME280;37382;45.192;9.790;2023-01-30T01:13:59;102002.59;;;0.57;100.00
51299;BME280;37382;45.192;9.790;2023-01-30T01:16:28;101997.72;;;0.77;100.00
51299;BME280;37382;45.192;9.790;2023-01-30T01:18:57;101988.84;;;0.76;100.00
51299;BME280;37382;45.192;9.790;2023-01-30T01:21:25;101993.91;;;0.81;100.00
51299;BME280;37382;45.192;9.790;2023-01-30T01:23:55;101989.84;;;0.33;100.00
51299;BME280;37382;45.192;9.790;2023-01-30T01:26:23;101997.97;;;-0.10;100.00
51299;BME280;37382;45.192;9.790;2023-01-30T01:28:55;101995.13;;;-0.21;100.00
51299;BME280;37382;45.192;9.790;2023-01-30T01:31:23;101995.66;;;0.13;100.00
51299;BME280;37382;45.192;9.790;2023-01-30T01:33:51;101987.69;;;0.53;100.00
51299;BME280;37382;45.192;9.790;2023-01-30T01:36:19;101982.69;;;0.61;100.00
51299;BME280;37382;45.192;9.790;2023-01-30T01:39:08;101977.03;;;0.66;100.00
51299;BME280;37382;45.192;9.790;2023-01-30T01:41:36;101964.47;;;0.66;100.00
51299;BME280;37382;45.192;9.790;2023-01-30T01:44:10;101956.97;;;0.71;100.00
51299;BME280;37382;45.192;9.790;2023-01-30T01:46:45;101965.44;;;0.65;100.00
51299;BME280;37382;45.192;9.790;2023-01-30T01:49:25;101965.22;;;0.68;100.00
51299;BME280;37382;45.192;9.790;2023-01-30T01:51:58;101963.22;;;0.85;100.00
51299;BME280;37382;45.192;9.790;2023-01-30T01:54:35;101962.50;;;0.96;100.00
51299;BME280;37382;45.192;9.790;2023-01-30T01:57:11;101958.03;;;0.96;100.00
51299;BME280;37382;45.192;9.790;2023-01-30T01:59:53;101960.44;;;0.86;100.00
51299;BME280;37382;45.192;9.790;2023-01-30T02:02:25;101957.78;;;0.86;100.00
51299;BME280;37382;45.192;9.790;2023-01-30T02:04:55;101956.28;;;0.95;100.00
51299;BME280;37382;45.192;9.790;2023-01-30T02:07:33;101942.78;;;0.84;100.00
51299;BME280;37382;45.192;9.790;2023-01-30T02:10:04;101940.53;;;0.78;100.00
51299;BME280;37382;45.192;9.790;2023-01-30T02:12:33;101948.41;;;0.66;100.00
51299;BME280;37382;45.192;9.790;2023-01-30T02:15:01;101952.59;;;0.03;100.00
51299;BME280;37382;45.192;9.790;2023-01-30T05:33:45;101821.25;;;-1.04;100.00
51299;BME280;37382;45.192;9.790;2023-01-30T05:36:15;101813.72;;;-1.12;100.00
51299;BME280;37382;45.192;9.790;2023-01-30T05:38:43;101814.56;;;-1.12;100.00
51299;BME280;37382;45.192;9.790;2023-01-30T05:41:13;101817.63;;;-1.18;100.00
51299;BME280;37382;45.192;9.790;2023-01-30T05:43:41;101822.66;;;-1.13;100.00
51299;BME280;37382;45.192;9.790;2023-01-30T05:46:10;101818.56;;;-1.19;100.00
51299;BME280;37382;45.192;9.790;2023-01-30T05:48:39;101823.16;;;-1.21;100.00
51299;BME280;37382;45.192;9.790;2023-01-30T05:51:15;101822.19;;;-1.20;100.00
51299;BME280;37382;45.192;9.790;2023-01-30T05:53:42;101828.38;;;-1.19;100.00
51299;BME280;37382;45.192;9.790;2023-01-30T05:56:10;101827.81;;;-1.24;100.00
51299;BME280;37382;45.192;9.790;2023-01-30T05:58:38;101830.09;;;-1.33;100.00
51299;BME280;37382;45.192;9.790;2023-01-30T06:01:07;101831.91;;;-1.33;100.00
51299;BME280;37382;45.192;9.790;2023-01-30T06:03:36;101836.41;;;-1.34;100.00
51299;BME280;37382;45.192;9.790;2023-01-30T06:06:05;101832.00;;;-1.35;100.00
51299;BME280;37382;45.192;9.790;2023-01-30T06:08:32;101842.97;;;-1.39;100.00
51299;BME280;37382;45.192;9.790;2023-01-30T06:11:05;101831.38;;;-1.10;100.00
51299;BME280;37382;45.192;9.790;2023-01-30T06:13:34;101824.84;;;-0.77;100.00
51299;BME280;37382;45.192;9.790;2023-01-30T06:16:02;101816.47;;;-0.43;100.00
51299;BME280;37382;45.192;9.790;2023-01-30T06:18:30;101810.91;;;-0.26;100.00
51299;BME280;37382;45.192;9.790;2023-01-30T06:20:58;101813.56;;;-0.53;100.00
51299;BME280;37382;45.192;9.790;2023-01-30T06:23:26;101814.56;;;-0.41;100.00
51299;BME280;37382;45.192;9.790;2023-01-30T06:25:54;101805.91;;;-0.17;100.00
51299;BME280;37382;45.192;9.790;2023-01-30T06:28:23;101826.28;;;-0.85;100.00
51299;BME280;37382;45.192;9.790;2023-01-30T06:30:52;101826.28;;;-0.85;100.00
51299;BME280;37382;45.192;9.790;2023-01-30T06:33:19;101823.16;;;-1.06;100.00
51299;BME280;37382;45.192;9.790;2023-01-30T06:35:49;101829.66;;;-1.11;100.00
51299;BME280;37382;45.192;9.790;2023-01-30T06:38:17;101832.00;;;-1.20;100.00
51299;BME280;37382;45.192;9.790;2023-01-30T06:40:48;101826.59;;;-1.04;100.00
51299;BME280;37382;45.192;9.790;2023-01-30T06:43:16;101825.34;;;-0.84;100.00
51299;BME280;37382;45.192;9.790;2023-01-30T06:45:44;101818.44;;;-0.32;100.00
51299;BME280;37382;45.192;9.790;2023-01-30T06:48:12;101821.69;;;-0.27;100.00
51299;BME280;37382;45.192;9.790;2023-01-30T06:50:39;101820.97;;;-0.44;100.00
51299;BME280;37382;45.192;9.790;2023-01-30T06:53:07;101808.56;;;-0.17;100.00
51299;BME280;37382;45.192;9.790;2023-01-30T06:55:35;101810.50;;;-0.61;100.00
51299;BME280;37382;45.192;9.790;2023-01-30T06:58:13;101821.53;;;-0.80;100.00
51299;BME280;37382;45.192;9.790;2023-01-30T07:00:42;101806.38;;;-1.09;100.00
51299;BME280;37382;45.192;9.790;2023-01-30T07:03:14;101794.22;;;-0.71;100.00
51299;BME280;37382;45.192;9.790;2023-01-30T07:05:43;101794.06;;;-0.97;100.00
51299;BME280;37382;45.192;9.790;2023-01-30T07:08:12;101800.66;;;-0.88;100.00
51299;BME280;37382;45.192;9.790;2023-01-30T07:10:40;101819.72;;;-0.94;100.00
51299;BME280;37382;45.192;9.790;2023-01-30T07:13:08;101809.34;;;-0.99;100.00
51299;BME280;37382;45.192;9.790;2023-01-30T07:15:36;101822.41;;;-0.94;100.00
51299;BME280;37382;45.192;9.790;2023-01-30T07:18:03;101828.09;;;-0.86;100.00
51299;BME280;37382;45.192;9.790;2023-01-30T07:20:31;101819.53;;;-0.91;100.00
51299;BME280;37382;45.192;9.790;2023-01-30T07:23:00;101822.41;;;-0.94;100.00
51299;BME280;37382;45.192;9.790;2023-01-30T07:25:28;101807.59;;;-0.85;100.00
51299;BME280;37382;45.192;9.790;2023-01-30T07:27:58;101815.31;;;-0.81;100.00
51299;BME280;37382;45.192;9.790;2023-01-30T07:30:27;101820.81;;;-0.55;100.00
51299;BME280;37382;45.192;9.790;2023-01-30T07:32:56;101800.00;;;-0.50;100.00
51299;BME280;37382;45.192;9.790;2023-01-30T07:35:27;101802.47;;;-0.47;100.00
51299;BME280;37382;45.192;9.790;2023-01-30T07:37:56;101797.97;;;-0.46;100.00
51299;BME280;37382;45.192;9.790;2023-01-30T07:40:24;101794.59;;;-0.36;100.00
51299;BME280;37382;45.192;9.790;2023-01-30T07:43:00;101791.38;;;-0.13;100.00
51299;BME280;37382;45.192;9.790;2023-01-30T07:45:41;101790.84;;;-0.06;100.00
51299;BME280;37382;45.192;9.790;2023-01-30T07:48:14;101797.06;;;-0.05;100.00
51299;BME280;37382;45.192;9.790;2023-01-30T07:50:43;101788.34;;;0.19;100.00
51299;BME280;37382;45.192;9.790;2023-01-30T07:53:13;101785.91;;;0.54;100.00
51299;BME280;37382;45.192;9.790;2023-01-30T07:55:41;101780.53;;;0.67;100.00
51299;BME280;37382;45.192;9.790;2023-01-30T07:58:12;101778.94;;;0.39;100.00
51299;BME280;37382;45.192;9.790;2023-01-30T08:00:41;101781.94;;;0.34;100.00
51299;BME280;37382;45.192;9.790;2023-01-30T08:03:14;101778.94;;;0.51;100.00
51299;BME280;37382;45.192;9.790;2023-01-30T08:05:44;101769.50;;;0.84;100.00
51299;BME280;37382;45.192;9.790;2023-01-30T08:08:14;101768.34;;;0.63;100.00
51299;BME280;37382;45.192;9.790;2023-01-30T08:10:43;101774.25;;;0.55;100.00
51299;BME280;37382;45.192;9.790;2023-01-30T08:13:11;101763.44;;;1.19;100.00
51299;BME280;37382;45.192;9.790;2023-01-30T08:15:39;101753.44;;;0.71;100.00
51299;BME280;37382;45.192;9.790;2023-01-30T08:18:06;101748.00;;;0.47;100.00
51299;BME280;37382;45.192;9.790;2023-01-30T08:20:34;101747.03;;;0.61;100.00
51299;BME280;37382;45.192;9.790;2023-01-30T08:23:03;101749.06;;;0.58;100.00
51299;BME280;37382;45.192;9.790;2023-01-30T08:25:30;101735.31;;;1.01;100.00
51299;BME280;37382;45.192;9.790;2023-01-30T08:27:58;101734.59;;;0.86;100.00
51299;BME280;37382;45.192;9.790;2023-01-30T08:30:27;101745.88;;;0.52;100.00
51299;BME280;37382;45.192;9.790;2023-01-30T08:32:57;101757.75;;;0.48;100.00
51299;BME280;37382;45.192;9.790;2023-01-30T08:35:24;101768.44;;;0.48;100.00
51299;BME280;37382;45.192;9.790;2023-01-30T08:37:52;101773.25;;;0.56;100.00
51299;BME280;37382;45.192;9.790;2023-01-30T08:40:20;101768.34;;;0.50;100.00
51299;BME280;37382;45.192;9.790;2023-01-30T08:42:47;101768.97;;;0.41;100.00
51299;BME280;37382;45.192;9.790;2023-01-30T08:45:15;101768.25;;;0.64;100.00
51299;BME280;37382;45.192;9.790;2023-01-30T08:47:42;101744.78;;;0.68;100.00
51299;BME280;37382;45.192;9.790;2023-01-30T08:50:09;101762.47;;;0.70;100.00
51299;BME280;37382;45.192;9.790;2023-01-30T08:52:38;101752.81;;;0.68;100.00
51299;BME280;37382;45.192;9.790;2023-01-30T08:55:05;101747.59;;;1.03;100.00
51299;BME280;37382;45.192;9.790;2023-01-30T08:57:33;101744.91;;;1.16;100.00
51299;BME280;37382;45.192;9.790;2023-01-30T09:00:01;101754.34;;;1.22;100.00
51299;BME280;37382;45.192;9.790;2023-01-30T09:02:29;101743.44;;;1.60;100.00
51299;BME280;37382;45.192;9.790;2023-01-30T09:04:57;101741.81;;;1.71;100.00
51299;BME280;37382;45.192;9.790;2023-01-30T09:07:24;101737.78;;;1.76;100.00
51299;BME280;37382;45.192;9.790;2023-01-30T09:09:54;101722.78;;;2.09;100.00
51299;BME280;37382;45.192;9.790;2023-01-30T09:12:21;101731.59;;;2.23;100.00
51299;BME280;37382;45.192;9.790;2023-01-30T09:14:48;101745.22;;;2.08;100.00
51299;BME280;37382;45.192;9.790;2023-01-30T09:17:16;101741.94;;;2.16;100.00
51299;BME280;37382;45.192;9.790;2023-01-30T09:19:43;101743.59;;;2.30;100.00
51299;BME280;37382;45.192;9.790;2023-01-30T09:22:11;101734.78;;;2.28;100.00
51299;BME280;37382;45.192;9.790;2023-01-30T09:24:38;101737.44;;;2.28;100.00
51299;BME280;37382;45.192;9.790;2023-01-30T09:27:06;101738.94;;;2.43;100.00
51299;BME280;37382;45.192;9.790;2023-01-30T09:29:33;101730.78;;;2.56;100.00
51299;BME280;37382;45.192;9.790;2023-01-30T09:32:01;101725.50;;;2.32;100.00
51299;BME280;37382;45.192;9.790;2023-01-30T09:34:28;101719.19;;;2.33;100.00
51299;BME280;37382;45.192;9.790;2023-01-30T09:36:59;101716.13;;;2.72;100.00
51299;BME280;37382;45.192;9.790;2023-01-30T09:39:30;101713.81;;;2.56;100.00
51299;BME280;37382;45.192;9.790;2023-01-30T09:55:50;101751.22;;;2.12;100.00
51299;BME280;37382;45.192;9.790;2023-01-30T09:58:20;101740.00;;;2.18;100.00
51299;BME280;37382;45.192;9.790;2023-01-30T10:00:53;101724.03;;;2.28;100.00
51299;BME280;37382;45.192;9.790;2023-01-30T10:03:27;101721.97;;;2.31;100.00
51299;BME280;37382;45.192;9.790;2023-01-30T10:06:10;101715.25;;;2.26;100.00
51299;BME280;37382;45.192;9.790;2023-01-30T10:14:54;101693.50;;;2.18;100.00
51299;BME280;37382;45.192;9.790;2023-01-30T10:25:52;101677.56;;;2.50;100.00
51299;BME280;37382;45.192;9.790;2023-01-30T10:28:28;101665.47;;;2.67;100.00
51299;BME280;37382;45.192;9.790;2023-01-30T10:31:06;101657.63;;;2.87;100.00
51299;BME280;37382;45.192;9.790;2023-01-30T10:36:29;101627.53;;;3.04;100.00
51299;BME280;37382;45.192;9.790;2023-01-30T10:39:00;101630.66;;;3.20;100.00
51299;BME280;37382;45.192;9.790;2023-01-30T10:41:35;101620.06;;;3.08;100.00
51299;BME280;37382;45.192;9.790;2023-01-30T10:44:11;101617.19;;;3.20;100.00
51299;BME280;37382;45.192;9.790;2023-01-30T10:49:22;101626.72;;;3.25;100.00
51299;BME280;37382;45.192;9.790;2023-01-30T10:55:14;101619.50;;;3.25;100.00
51299;BME280;37382;45.192;9.790;2023-01-30T11:00:58;101599.06;;;3.34;100.00
51299;BME280;37382;45.192;9.790;2023-01-30T11:03:35;101607.19;;;3.44;100.00
51299;BME280;37382;45.192;9.790;2023-01-30T11:06:14;101587.19;;;3.58;100.00
51299;BME280;37382;45.192;9.790;2023-01-30T11:08:43;101562.78;;;3.49;100.00
51299;BME280;37382;45.192;9.790;2023-01-30T11:11:31;101550.06;;;3.51;100.00
51299;BME280;37382;45.192;9.790;2023-01-30T11:14:08;101548.22;;;3.31;100.00
51299;BME280;37382;45.192;9.790;2023-01-30T11:16:49;101525.31;;;3.58;100.00
51299;BME280;37382;45.192;9.790;2023-01-30T11:19:21;101546.00;;;3.88;100.00
51299;BME280;37382;45.192;9.790;2023-01-30T11:21:51;101547.22;;;3.74;100.00
51299;BME280;37382;45.192;9.790;2023-01-30T11:24:29;101517.97;;;3.90;100.00
51299;BME280;37382;45.192;9.790;2023-01-30T11:27:24;101513.03;;;3.65;100.00
51299;BME280;37382;45.192;9.790;2023-01-30T11:30:15;101495.66;;;3.69;100.00
51299;BME280;37382;45.192;9.790;2023-01-30T11:32:47;101493.69;;;4.12;100.00
51299;BME280;37382;45.192;9.790;2023-01-30T11:35:24;101494.59;;;3.91;100.00
51299;BME280;37382;45.192;9.790;2023-01-30T11:37:52;101489.78;;;4.35;100.00
51299;BME280;37382;45.192;9.790;2023-01-30T11:40:26;101489.28;;;4.01;100.00
51299;BME280;37382;45.192;9.790;2023-01-30T11:43:23;101481.56;;;4.37;100.00
51299;BME280;37382;45.192;9.790;2023-01-30T11:45:54;101483.00;;;4.70;100.00
51299;BME280;37382;45.192;9.790;2023-01-30T11:48:26;101481.69;;;4.35;100.00
51299;BME280;37382;45.192;9.790;2023-01-30T11:51:15;101455.66;;;4.55;100.00
51299;BME280;37382;45.192;9.790;2023-01-30T11:53:48;101455.22;;;4.70;100.00
51299;BME280;37382;45.192;9.790;2023-01-30T11:56:26;101455.06;;;4.81;100.00
51299;BME280;37382;45.192;9.790;2023-01-30T11:58:58;101432.31;;;5.13;100.00
51299;BME280;37382;45.192;9.790;2023-01-30T12:01:32;101431.75;;;5.19;100.00
51299;BME280;37382;45.192;9.790;2023-01-30T12:04:05;101427.59;;;5.34;100.00
51299;BME280;37382;45.192;9.790;2023-01-30T12:06:35;101416.28;;;5.11;100.00
51299;BME280;37382;45.192;9.790;2023-01-30T12:09:05;101411.03;;;5.20;100.00
51299;BME280;37382;45.192;9.790;2023-01-30T12:14:12;101404.94;;;5.55;100.00
51299;BME280;37382;45.192;9.790;2023-01-30T12:19:42;101390.81;;;5.71;100.00
51299;BME280;37382;45.192;9.790;2023-01-30T12:22:22;101382.72;;;5.89;100.00
51299;BME280;37382;45.192;9.790;2023-01-30T12:32:55;101379.19;;;6.52;100.00
51299;BME280;37382;45.192;9.790;2023-01-30T12:57:40;101295.78;;;6.84;100.00
51299;BME280;37382;45.192;9.790;2023-01-30T13:03:03;101295.25;;;6.54;100.00
51299;BME280;37382;45.192;9.790;2023-01-30T13:06:38;101289.88;;;6.36;100.00
51299;BME280;37382;45.192;9.790;2023-01-30T13:08:51;101288.09;;;6.45;100.00
51299;BME280;37382;45.192;9.790;2023-01-30T13:11:44;101278.03;;;6.55;100.00
51299;BME280;37382;45.192;9.790;2023-01-30T13:14:25;101280.75;;;7.16;100.00
51299;BME280;37382;45.192;9.790;2023-01-30T13:19:41;101289.81;;;6.72;100.00
51299;BME280;37382;45.192;9.790;2023-01-30T13:22:27;101273.84;;;6.87;100.00
51299;BME280;37382;45.192;9.790;2023-01-30T13:27:55;101267.00;;;7.09;100.00
51299;BME280;37382;45.192;9.790;2023-01-30T13:30:24;101274.31;;;7.17;100.00
51299;BME280;37382;45.192;9.790;2023-01-30T13:32:56;101260.38;;;6.69;100.00
51299;BME280;37382;45.192;9.790;2023-01-30T13:35:42;101259.25;;;6.80;100.00
51299;BME280;37382;45.192;9.790;2023-01-30T13:38:21;101234.78;;;6.89;100.00
51299;BME280;37382;45.192;9.790;2023-01-30T13:40:54;101224.28;;;6.86;100.00
51299;BME280;37382;45.192;9.790;2023-01-30T13:43:39;101235.50;;;6.91;100.00
51299;BME280;37382;45.192;9.790;2023-01-30T13:46:10;101231.00;;;7.08;100.00
51299;BME280;37382;45.192;9.790;2023-01-30T13:51:46;101231.91;;;6.91;100.00
51299;BME280;37382;45.192;9.790;2023-01-30T13:54:40;101219.09;;;6.93;100.00
51299;BME280;37382;45.192;9.790;2023-01-30T14:08:54;101217.06;;;6.95;100.00
51299;BME280;37382;45.192;9.790;2023-01-30T14:11:32;101212.81;;;7.35;100.00
51299;BME280;37382;45.192;9.790;2023-01-30T14:14:23;101219.91;;;7.28;100.00
51299;BME280;37382;45.192;9.790;2023-01-30T14:17:15;101207.28;;;7.53;100.00
51299;BME280;37382;45.192;9.790;2023-01-30T14:22:31;101199.00;;;7.63;100.00
51299;BME280;37382;45.192;9.790;2023-01-30T14:38:36;101164.06;;;7.19;100.00
51299;BME280;37382;45.192;9.790;2023-01-30T14:51:42;101151.97;;;6.88;100.00
51299;BME280;37382;45.192;9.790;2023-01-30T14:56:46;101167.34;;;6.88;100.00
51299;BME280;37382;45.192;9.790;2023-01-30T15:04:36;101131.00;;;6.90;100.00
51299;BME280;37382;45.192;9.790;2023-01-30T15:07:18;101157.56;;;6.95;100.00
51299;BME280;37382;45.192;9.790;2023-01-30T15:09:56;101152.66;;;6.99;100.00
51299;BME280;37382;45.192;9.790;2023-01-30T15:18:45;101137.47;;;6.98;100.00
51299;BME280;37382;45.192;9.790;2023-01-30T15:21:24;101140.63;;;7.60;100.00
51299;BME280;37382;45.192;9.790;2023-01-30T15:32:21;101149.94;;;6.90;100.00
51299;BME280;37382;45.192;9.790;2023-01-30T15:35:00;101151.81;;;6.90;100.00
51299;BME280;37382;45.192;9.790;2023-01-30T15:42:45;101143.25;;;7.19;100.00
51299;BME280;37382;45.192;9.790;2023-01-30T15:50:32;101147.84;;;7.19;100.00
51299;BME280;37382;45.192;9.790;2023-01-30T15:53:00;101138.72;;;7.36;100.00
51299;BME280;37382;45.192;9.790;2023-01-30T15:55:31;101144.81;;;7.22;100.00
51299;BME280;37382;45.192;9.790;2023-01-30T15:58:03;101148.53;;;7.29;100.00
51299;BME280;37382;45.192;9.790;2023-01-30T16:00:35;101151.75;;;7.41;100.00
51299;BME280;37382;45.192;9.790;2023-01-30T16:03:05;101143.72;;;6.98;100.00
51299;BME280;37382;45.192;9.790;2023-01-30T16:05:45;101143.38;;;7.01;100.00
51299;BME280;37382;45.192;9.790;2023-01-30T16:08:25;101146.47;;;7.15;100.00
51299;BME280;37382;45.192;9.790;2023-01-30T16:10:53;101148.47;;;7.12;100.00
51299;BME280;37382;45.192;9.790;2023-01-30T16:13:21;101150.94;;;6.81;100.00
51299;BME280;37382;45.192;9.790;2023-01-30T16:18:40;101160.91;;;6.81;100.00
51299;BME280;37382;45.192;9.790;2023-01-30T16:21:18;101160.84;;;6.72;100.00
51299;BME280;37382;45.192;9.790;2023-01-30T16:23:58;101168.88;;;6.56;100.00
51299;BME280;37382;45.192;9.790;2023-01-30T16:26:27;101173.56;;;6.46;100.00
51299;BME280;37382;45.192;9.790;2023-01-30T16:29:04;101171.63;;;6.38;100.00
51299;BME280;37382;45.192;9.790;2023-01-30T16:31:36;101182.94;;;6.33;100.00
51299;BME280;37382;45.192;9.790;2023-01-30T16:34:04;101172.41;;;6.22;100.00
51299;BME280;37382;45.192;9.790;2023-01-30T16:36:38;101167.34;;;6.27;100.00
51299;BME280;37382;45.192;9.790;2023-01-30T16:39:27;101179.66;;;6.21;100.00
51299;BME280;37382;45.192;9.790;2023-01-30T16:41:57;101181.47;;;6.13;100.00
51299;BME280;37382;45.192;9.790;2023-01-30T16:44:30;101184.94;;;5.87;100.00
51299;BME280;37382;45.192;9.790;2023-01-30T16:47:22;101173.28;;;5.86;100.00
51299;BME280;37382;45.192;9.790;2023-01-30T16:49:50;101174.06;;;5.97;100.00
51299;BME280;37382;45.192;9.790;2023-01-30T16:52:37;101170.66;;;5.77;100.00
51299;BME280;37382;45.192;9.790;2023-01-30T16:55:19;101175.91;;;5.60;100.00
51299;BME280;37382;45.192;9.790;2023-01-30T16:57:57;101177.47;;;5.63;100.00
51299;BME280;37382;45.192;9.790;2023-01-30T17:00:48;101169.06;;;5.48;100.00
51299;BME280;37382;45.192;9.790;2023-01-30T17:03:23;101167.06;;;5.50;100.00
51299;BME280;37382;45.192;9.790;2023-01-30T17:05:53;101167.59;;;5.53;100.00
51299;BME280;37382;45.192;9.790;2023-01-30T17:11:02;101175.06;;;5.42;100.00
51299;BME280;37382;45.192;9.790;2023-01-30T17:18:51;101169.66;;;5.24;100.00
51299;BME280;37382;45.192;9.790;2023-01-30T17:21:20;101160.44;;;4.98;100.00
51299;BME280;37382;45.192;9.790;2023-01-30T17:23:58;101152.44;;;5.07;100.00
51299;BME280;37382;45.192;9.790;2023-01-30T17:26:27;101157.84;;;5.07;100.00
51299;BME280;37382;45.192;9.790;2023-01-30T17:28:56;101158.84;;;5.06;100.00
51299;BME280;37382;45.192;9.790;2023-01-30T17:31:24;101171.75;;;5.12;100.00
51299;BME280;37382;45.192;9.790;2023-01-30T17:33:51;101162.66;;;5.31;100.00
51299;BME280;37382;45.192;9.790;2023-01-30T17:36:23;101162.63;;;5.13;100.00
51299;BME280;37382;45.192;9.790;2023-01-30T17:38:53;101155.88;;;5.27;100.00
51299;BME280;37382;45.192;9.790;2023-01-30T17:41:30;101160.41;;;5.26;100.00
51299;BME280;37382;45.192;9.790;2023-01-30T17:43:59;101158.72;;;5.25;100.00
51299;BME280;37382;45.192;9.790;2023-01-30T17:46:50;101159.72;;;5.24;100.00
51299;BME280;37382;45.192;9.790;2023-01-30T17:49:20;101170.97;;;5.20;100.00
51299;BME280;37382;45.192;9.790;2023-01-30T17:51:52;101156.63;;;5.19;100.00
51299;BME280;37382;45.192;9.790;2023-01-30T17:54:20;101162.94;;;5.10;100.00
51299;BME280;37382;45.192;9.790;2023-01-30T17:56:54;101170.66;;;5.23;100.00
51299;BME280;37382;45.192;9.790;2023-01-30T17:59:22;101175.03;;;5.06;100.00
51299;BME280;37382;45.192;9.790;2023-01-30T18:01:50;101172.13;;;5.17;100.00
51299;BME280;37382;45.192;9.790;2023-01-30T18:04:19;101183.13;;;5.06;100.00
51299;BME280;37382;45.192;9.790;2023-01-30T18:06:52;101171.31;;;5.07;100.00
51299;BME280;37382;45.192;9.790;2023-01-30T18:09:23;101181.59;;;5.21;100.00
51299;BME280;37382;45.192;9.790;2023-01-30T18:11:50;101176.22;;;5.21;100.00
51299;BME280;37382;45.192;9.790;2023-01-30T18:14:17;101188.22;;;5.09;100.00
51299;BME280;37382;45.192;9.790;2023-01-30T18:16:45;101191.22;;;5.06;100.00
51299;BME280;37382;45.192;9.790;2023-01-30T18:19:15;101198.50;;;4.95;100.00
51299;BME280;37382;45.192;9.790;2023-01-30T18:21:44;101192.00;;;4.88;100.00
51299;BME280;37382;45.192;9.790;2023-01-30T18:24:13;101193.13;;;4.86;100.00
51299;BME280;37382;45.192;9.790;2023-01-30T18:26:41;101199.25;;;4.88;100.00
51299;BME280;37382;45.192;9.790;2023-01-30T18:29:09;101196.72;;;4.76;100.00
51299;BME280;37382;45.192;9.790;2023-01-30T18:31:38;101189.28;;;4.60;100.00
51299;BME280;37382;45.192;9.790;2023-01-30T18:34:06;101187.00;;;4.66;100.00
51299;BME280;37382;45.192;9.790;2023-01-30T18:36:36;101186.91;;;4.85;100.00
51299;BME280;37382;45.192;9.790;2023-01-30T18:39:04;101188.31;;;4.52;100.00
51299;BME280;37382;45.192;9.790;2023-01-30T18:41:32;101200.13;;;4.41;100.00
51299;BME280;37382;45.192;9.790;2023-01-30T18:44:04;101206.94;;;4.35;100.00
51299;BME280;37382;45.192;9.790;2023-01-30T18:46:32;101191.22;;;4.40;100.00
51299;BME280;37382;45.192;9.790;2023-01-30T18:49:00;101183.81;;;4.52;100.00
51299;BME280;37382;45.192;9.790;2023-01-30T18:51:30;101182.25;;;4.50;100.00
51299;BME280;37382;45.192;9.790;2023-01-30T18:54:00;101188.06;;;4.45;100.00
51299;BME280;37382;45.192;9.790;2023-01-30T18:56:29;101182.03;;;4.23;100.00
51299;BME280;37382;45.192;9.790;2023-01-30T18:58:59;101178.63;;;4.21;100.00
51299;BME280;37382;45.192;9.790;2023-01-30T19:01:32;101178.94;;;4.08;100.00
51299;BME280;37382;45.192;9.790;2023-01-30T19:04:02;101188.03;;;3.78;100.00
51299;BME280;37382;45.192;9.790;2023-01-30T19:06:34;101189.00;;;4.16;100.00
51299;BME280;37382;45.192;9.790;2023-01-30T19:09:02;101191.53;;;4.18;100.00
51299;BME280;37382;45.192;9.790;2023-01-30T19:11:30;101199.91;;;4.05;100.00
51299;BME280;37382;45.192;9.790;2023-01-30T19:14:17;101187.75;;;4.01;100.00
51299;BME280;37382;45.192;9.790;2023-01-30T19:16:46;101184.44;;;4.26;100.00
51299;BME280;37382;45.192;9.790;2023-01-30T19:19:13;101187.94;;;4.37;100.00